Time;durP1;ratioP1;P1;durP2;ratioP2;P2;SDS_P1;SDS_P2;PMS_P1;PMS_P2;Temp;Humidity;BMP_temperature;BMP_pressure;BME280_temperature;BME280_humidity;BME280_pressure;Samples;Min_cycle;Max_cycle;Signal;HPM_P1;HPM_P2
2022/08/09 00:01:02;;;;;;;4.12;3.77;;;;;;;30.53;44.58;101575.41;1699596;84;21010;-49
2022/08/09 00:03:29;;;;;;;6.78;4.15;;;;;;;30.53;44.64;101575.41;1697960;83;21530;-50
2022/08/09 00:05:56;;;;;;;5.10;4.28;;;;;;;30.49;44.41;101579.37;1735515;81;21031;-56
2022/08/09 00:08:23;;;;;;;4.83;3.67;;;;;;;30.46;44.35;101572.92;1700095;84;21014;-50
2022/08/09 00:10:49;;;;;;;5.70;3.95;;;;;;;30.45;44.31;101575.27;1736503;81;21011;-51
2022/08/09 00:13:16;;;;;;;7.25;3.45;;;;;;;30.43;43.99;101571.02;1733476;81;20983;-53
2022/08/09 00:15:43;;;;;;;3.85;3.52;;;;;;;30.42;43.94;101562.11;1724552;81;21022;-50
2022/08/09 00:18:10;;;;;;;5.95;3.85;;;;;;;30.42;43.84;101562.59;1733739;81;21062;-50
2022/08/09 00:20:37;;;;;;;6.33;3.95;;;;;;;30.40;43.61;101559.20;1731593;82;21026;-49
2022/08/09 00:23:04;;;;;;;4.62;4.08;;;;;;;30.40;43.51;101544.44;1736117;81;21007;-50
2022/08/09 00:25:31;;;;;;;3.87;3.58;;;;;;;30.39;43.33;101550.33;1722181;81;21023;-49
2022/08/09 00:27:57;;;;;;;4.37;3.83;;;;;;;30.37;43.27;101548.28;1735253;81;21551;-50
2022/08/09 00:30:24;;;;;;;5.00;3.62;;;;;;;30.36;43.09;101559.99;1733637;81;21030;-49
2022/08/09 00:32:51;;;;;;;5.92;3.75;;;;;;;30.33;42.93;101571.03;1732507;81;21082;-50
2022/08/09 00:35:17;;;;;;;3.98;3.67;;;;;;;30.33;42.91;101584.45;1731859;81;21063;-52
2022/08/09 00:37:44;;;;;;;4.25;3.85;;;;;;;30.31;42.89;101586.44;1734286;81;21043;-49
2022/08/09 00:40:11;;;;;;;5.37;4.10;;;;;;;30.29;43.30;101591.09;1734610;81;21472;-49
2022/08/09 00:42:38;;;;;;;4.33;3.92;;;;;;;30.26;43.90;101589.98;1700474;84;21025;-52
2022/08/09 00:45:07;;;;;;;5.25;4.22;;;;;;;30.25;43.90;101591.48;1687924;84;21010;-49
2022/08/09 00:47:34;;;;;;;4.42;4.03;;;;;;;30.22;43.72;101587.23;1741235;81;22596;-49
2022/08/09 00:50:01;;;;;;;6.33;3.33;;;;;;;30.19;43.42;101575.41;1734414;81;21034;-52
2022/08/09 00:52:29;;;;;;;6.55;4.25;;;;;;;30.17;43.10;101572.02;1732201;82;21530;-51
2022/08/09 00:55:00;;;;;;;3.98;3.58;;;;;;;30.13;43.00;101569.26;1691543;84;21014;-48
2022/08/09 00:57:29;;;;;;;4.58;3.80;;;;;;;30.11;43.18;101570.41;1697934;83;21006;-48
2022/08/09 00:59:55;;;;;;;7.83;3.83;;;;;;;30.09;43.19;101573.21;1698155;83;21030;-49
2022/08/09 01:02:24;;;;;;;6.33;3.77;;;;;;;30.06;43.21;101570.83;1734608;82;21043;-49
2022/08/09 01:05:08;;;;;;;4.47;3.92;;;;;;;30.05;43.29;101573.63;1736208;81;20999;-48
2022/08/09 01:08:02;;;;;;;4.08;3.77;;;;;;;30.03;43.20;101577.80;1723712;81;21042;-48
2022/08/09 01:10:49;;;;;;;7.53;4.10;;;;;;;29.98;43.14;101576.03;1744949;81;21050;-49
2022/08/09 01:13:50;;;;;;;5.90;3.80;;;;;;;29.94;43.56;101575.96;1752125;82;21027;-55
2022/08/09 01:16:21;;;;;;;5.83;4.05;;;;;;;29.90;43.99;101582.59;1741977;81;21003;-52
2022/08/09 01:18:47;;;;;;;4.80;3.95;;;;;;;29.85;44.36;101583.48;1731596;81;21015;-51
2022/08/09 01:21:35;;;;;;;7.72;3.83;;;;;;;29.83;44.57;101589.48;1731276;81;21022;-49
2022/08/09 01:24:10;;;;;;;4.60;3.75;;;;;;;29.80;44.29;101580.34;1723436;81;21007;-50
2022/08/09 01:27:06;;;;;;;4.00;3.67;;;;;;;29.77;44.55;101579.30;1695516;84;21030;-50
2022/08/09 01:29:43;;;;;;;4.20;3.80;;;;;;;29.72;44.56;101568.97;1697851;84;21018;-50
2022/08/09 01:32:12;;;;;;;4.92;3.90;;;;;;;29.70;44.37;101564.69;1698247;84;21471;-50
2022/08/09 01:34:41;;;;;;;5.60;4.60;;;;;;;29.66;44.32;101553.88;1696030;84;21117;-50
2022/08/09 01:37:08;;;;;;;5.12;4.60;;;;;;;29.63;44.51;101553.67;1734148;79;21082;-49
2022/08/09 01:39:37;;;;;;;6.78;4.30;;;;;;;29.63;44.69;101563.06;1738351;81;21003;-48
2022/08/09 01:42:04;;;;;;;6.10;4.45;;;;;;;29.62;44.78;101565.86;1699713;84;21050;-51
2022/08/09 01:44:31;;;;;;;4.53;4.22;;;;;;;29.60;44.77;101570.52;1700271;84;21018;-49
2022/08/09 01:47:00;;;;;;;4.30;4.00;;;;;;;29.57;44.80;101577.50;1734539;81;21034;-49
2022/08/09 01:49:28;;;;;;;5.83;4.12;;;;;;;29.55;44.98;101577.62;1734315;81;21071;-49
2022/08/09 01:51:58;;;;;;;4.35;3.95;;;;;;;29.53;45.43;101582.78;1731950;81;21027;-52
2022/08/09 01:54:34;;;;;;;4.78;4.30;;;;;;;29.53;45.63;101580.10;1669671;84;21043;-54
2022/08/09 01:57:16;;;;;;;5.67;3.90;;;;;;;29.53;45.52;101582.78;1646910;86;21007;-52
2022/08/09 01:59:46;;;;;;;5.33;4.83;;;;;;;29.53;45.62;101576.91;1662306;85;21057;-52
2022/08/09 02:02:14;;;;;;;6.28;4.25;;;;;;;29.52;45.50;101567.66;1627345;87;21523;-50
2022/08/09 02:04:41;;;;;;;5.08;4.58;;;;;;;29.53;45.45;101566.69;1663424;86;21053;-52
2022/08/09 02:07:16;;;;;;;5.12;4.70;;;;;;;29.52;45.43;101563.16;1628626;87;21063;-50
2022/08/09 02:09:50;;;;;;;4.97;4.53;;;;;;;29.51;45.41;101574.02;1629835;87;21508;-49
2022/08/09 02:12:17;;;;;;;5.20;4.70;;;;;;;29.52;45.36;101573.02;1629194;87;21047;-50
2022/08/09 02:14:46;;;;;;;4.62;4.22;;;;;;;29.51;45.53;101574.85;1605866;87;21016;-49
2022/08/09 02:17:13;;;;;;;5.83;5.22;;;;;;;29.50;45.73;101581.70;1621115;88;21078;-50
2022/08/09 02:19:40;;;;;;;5.28;4.33;;;;;;;29.47;46.04;101594.05;1620448;88;21062;-50
2022/08/09 02:22:24;;;;;;;5.40;4.12;;;;;;;29.43;46.27;101587.27;1616395;86;21555;-49
2022/08/09 02:24:53;;;;;;;5.72;4.62;;;;;;;29.42;46.46;101582.87;1623278;87;21137;-49
2022/08/09 02:27:20;;;;;;;7.00;4.47;;;;;;;29.38;46.74;101586.80;1626723;88;21010;-53
2022/08/09 02:29:50;;;;;;;5.00;4.60;;;;;;;29.37;46.92;101577.04;1620952;88;21011;-48
2022/08/09 02:32:19;;;;;;;6.67;5.17;;;;;;;29.35;46.82;101576.33;1621303;88;21036;-48
2022/08/09 02:34:49;;;;;;;9.05;5.20;;;;;;;29.33;46.65;101579.63;1620710;88;21069;-51
2022/08/09 02:37:17;;;;;;;6.80;4.73;;;;;;;29.33;46.60;101576.95;1621012;88;21618;-48
2022/08/09 02:39:51;;;;;;;6.87;5.17;;;;;;;29.32;46.52;101573.94;1621588;88;21050;-50
2022/08/09 02:42:23;;;;;;;4.72;4.33;;;;;;;29.31;46.63;101582.45;1638477;87;21130;-52
2022/08/09 02:45:01;;;;;;;5.80;4.90;;;;;;;29.30;46.76;101582.59;1638792;87;21579;-48
2022/08/09 02:47:29;;;;;;;4.45;4.15;;;;;;;29.28;47.05;101585.42;1639043;87;21591;-53
2022/08/09 02:50:03;;;;;;;4.70;4.30;;;;;;;29.25;47.30;101579.45;1640853;87;21111;-52
2022/08/09 02:52:49;;;;;;;6.95;4.55;;;;;;;29.24;47.54;101583.14;1573191;88;21038;-48
2022/08/09 02:55:16;;;;;;;5.20;4.70;;;;;;;29.23;47.65;101589.46;1631412;85;21028;-48
2022/08/09 02:57:43;;;;;;;6.85;4.72;;;;;;;29.21;47.71;101587.41;1662335;85;21090;-50
2022/08/09 03:00:11;;;;;;;8.25;4.92;;;;;;;29.19;47.80;101586.69;1686786;84;21087;-48
2022/08/09 03:02:42;;;;;;;5.50;5.00;;;;;;;29.17;47.85;101585.97;1684493;84;21017;-49
2022/08/09 03:05:11;;;;;;;5.20;4.80;;;;;;;29.16;47.83;101589.66;1685890;85;21064;-50
2022/08/09 03:07:38;;;;;;;5.30;4.80;;;;;;;29.14;47.86;101592.92;1685500;84;21089;-51
2022/08/09 03:10:07;;;;;;;7.53;4.80;;;;;;;29.12;47.87;101601.59;1677093;84;21053;-50
2022/08/09 03:12:35;;;;;;;5.78;5.20;;;;;;;29.10;47.98;101603.55;1677543;84;21067;-53
2022/08/09 03:15:03;;;;;;;4.72;4.33;;;;;;;29.08;48.11;101601.49;1677836;84;21001;-52
2022/08/09 03:17:30;;;;;;;7.03;4.92;;;;;;;29.06;48.12;101598.09;1674667;84;21033;-52
2022/08/09 03:19:59;;;;;;;5.83;4.75;;;;;;;29.04;48.12;101601.40;1676590;85;21016;-53
2022/08/09 03:22:27;;;;;;;7.97;5.17;;;;;;;29.04;48.14;101593.36;1677399;84;21513;-54
2022/08/09 03:24:53;;;;;;;6.00;5.08;;;;;;;29.03;48.10;101588.97;1677416;84;21017;-52
2022/08/09 03:27:20;;;;;;;6.70;5.60;;;;;;;29.02;48.07;101593.47;1677395;84;21079;-50
2022/08/09 03:29:47;;;;;;;6.33;5.72;;;;;;;29.01;48.12;101598.97;1702762;82;20990;-51
2022/08/09 03:32:14;;;;;;;5.50;5.00;;;;;;;28.99;48.32;101589.73;1736599;81;21030;-51
2022/08/09 03:34:40;;;;;;;7.75;5.37;;;;;;;28.96;48.37;101588.16;1733236;81;21153;-50
2022/08/09 03:37:07;;;;;;;5.17;4.78;;;;;;;28.96;48.27;101586.81;1697070;84;21034;-52
2022/08/09 03:39:33;;;;;;;5.62;5.05;;;;;;;28.97;48.28;101587.16;1731657;82;21015;-51
2022/08/09 03:42:00;;;;;;;5.50;4.92;;;;;;;28.98;48.42;101591.55;1740010;81;21067;-51
2022/08/09 03:44:28;;;;;;;6.62;5.22;;;;;;;29.00;48.45;101589.24;1733708;81;21058;-49
2022/08/09 03:46:55;;;;;;;6.22;5.62;;;;;;;29.02;48.48;101593.98;1733359;81;21055;-50
2022/08/09 03:49:23;;;;;;;6.28;5.05;;;;;;;29.03;48.49;101591.64;1733426;81;21003;-49
2022/08/09 03:51:55;;;;;;;7.58;5.35;;;;;;;29.04;48.51;101592.02;1733291;81;21062;-50
2022/08/09 03:54:23;;;;;;;6.22;5.42;;;;;;;29.05;48.54;101594.56;1695538;84;21041;-49
2022/08/09 03:56:50;;;;;;;7.28;5.10;;;;;;;29.06;48.62;101598.09;1694916;84;21011;-49
2022/08/09 03:59:17;;;;;;;6.17;5.05;;;;;;;29.07;48.75;101599.78;1701098;84;21026;-49
2022/08/09 04:01:45;;;;;;;5.85;5.35;;;;;;;29.07;48.66;101595.76;1724865;81;21464;-50
2022/08/09 04:04:12;;;;;;;5.33;4.80;;;;;;;29.07;48.68;101588.58;1734247;81;21003;-50
2022/08/09 04:06:39;;;;;;;6.50;5.70;;;;;;;29.07;48.67;101589.06;1735612;82;21105;-49
2022/08/09 04:09:06;;;;;;;5.50;4.90;;;;;;;29.07;48.66;101601.12;1699429;84;21601;-49
2022/08/09 04:12:13;;;;;;;5.67;5.12;;;;;;;29.07;48.88;101595.76;1734000;81;21007;-53
2022/08/09 04:14:39;;;;;;;5.53;5.12;;;;;;;29.08;49.08;101602.83;1731098;82;21004;-54
2022/08/09 04:17:06;;;;;;;6.08;5.47;;;;;;;29.09;49.03;101607.20;1700502;84;22184;-50
2022/08/09 04:19:33;;;;;;;6.12;5.60;;;;;;;29.11;49.04;101603.89;1699903;84;21077;-53
2022/08/09 04:22:00;;;;;;;8.20;5.42;;;;;;;29.10;49.02;101604.89;1691161;83;21026;-50
2022/08/09 04:24:27;;;;;;;6.28;5.33;;;;;;;29.11;49.09;101601.22;1693667;83;21066;-50
2022/08/09 04:26:53;;;;;;;5.70;5.17;;;;;;;29.12;49.19;101601.59;1694363;84;21479;-53
2022/08/09 04:29:20;;;;;;;5.35;4.85;;;;;;;29.12;49.20;101602.41;1697142;83;21026;-50
2022/08/09 04:31:46;;;;;;;6.60;5.97;;;;;;;29.15;49.12;101597.32;1697813;83;21546;-55
2022/08/09 04:34:13;;;;;;;6.47;5.95;;;;;;;29.16;49.11;101599.03;1699363;83;21033;-51
2022/08/09 04:36:40;;;;;;;6.45;5.85;;;;;;;29.18;48.92;101607.28;1736489;81;21015;-53
2022/08/09 04:39:07;;;;;;;7.22;5.80;;;;;;;29.22;48.95;101609.22;1734642;81;21011;-52
2022/08/09 04:41:34;;;;;;;6.00;5.50;;;;;;;29.24;48.87;101601.41;1730357;82;21551;-51
2022/08/09 04:44:04;;;;;;;7.45;5.62;;;;;;;29.28;48.98;101596.63;1725929;81;21054;-50
2022/08/09 04:46:31;;;;;;;8.30;5.75;;;;;;;29.30;48.83;101594.66;1731993;81;21011;-49
2022/08/09 04:48:58;;;;;;;7.12;5.70;;;;;;;29.32;48.79;101595.38;1733064;81;21483;-53
2022/08/09 04:51:25;;;;;;;8.85;5.50;;;;;;;29.35;48.81;101592.41;1700435;84;21062;-50
2022/08/09 04:53:52;;;;;;;8.00;5.67;;;;;;;29.37;48.57;101597.15;1696770;84;21030;-50
2022/08/09 04:56:19;;;;;;;6.30;5.70;;;;;;;29.41;48.51;101599.44;1698479;84;21487;-53
2022/08/09 04:58:45;;;;;;;8.45;6.60;;;;;;;29.43;48.59;101595.30;1698071;83;21062;-50
2022/08/09 05:01:12;;;;;;;5.75;5.33;;;;;;;29.48;48.78;101606.45;1697897;82;21562;-50
2022/08/09 05:03:38;;;;;;;6.30;5.80;;;;;;;29.52;48.92;101601.19;1691638;83;21042;-52
2022/08/09 05:06:06;;;;;;;6.55;5.33;;;;;;;29.55;48.82;101596.39;1732490;81;21490;-54
2022/08/09 05:08:34;;;;;;;7.72;5.80;;;;;;;29.60;48.73;101597.33;1732349;81;21079;-52
2022/08/09 05:11:01;;;;;;;6.83;5.80;;;;;;;29.64;48.82;101596.08;1731535;81;20984;-50
2022/08/09 05:13:28;;;;;;;7.85;6.05;;;;;;;29.68;48.45;101594.34;1731880;81;21040;-50
2022/08/09 05:15:54;;;;;;;6.30;5.75;;;;;;;29.73;48.43;101595.31;1732352;81;20999;-51
2022/08/09 05:18:21;;;;;;;7.47;5.60;;;;;;;29.77;48.41;101595.39;1734689;81;21023;-49
2022/08/09 05:20:47;;;;;;;8.63;5.78;;;;;;;29.81;48.04;101598.16;1735337;81;21003;-52
2022/08/09 05:23:14;;;;;;;7.25;6.15;;;;;;;29.85;47.98;101596.89;1698843;83;21584;-51
2022/08/09 05:25:41;;;;;;;7.17;5.70;;;;;;;29.89;47.85;101594.29;1696956;84;21062;-54
2022/08/09 05:28:08;;;;;;;6.42;5.83;;;;;;;29.94;47.41;101592.06;1697613;84;21017;-51
2022/08/09 05:30:35;;;;;;;7.67;5.70;;;;;;;29.98;47.25;101589.94;1698497;84;21030;-49
2022/08/09 05:33:01;;;;;;;10.28;5.97;;;;;;;30.04;47.20;101593.41;1698371;84;21507;-49
2022/08/09 05:35:28;;;;;;;8.10;6.30;;;;;;;30.10;47.15;101595.06;1684126;84;21089;-52
2022/08/09 05:37:56;;;;;;;9.25;6.65;;;;;;;30.17;47.01;101590.81;1698820;83;21082;-50
2022/08/09 05:40:24;;;;;;;6.75;6.15;;;;;;;30.28;46.89;101594.72;1701069;83;21038;-50
2022/08/09 05:42:51;;;;;;;7.37;6.25;;;;;;;30.43;47.01;101600.56;1736405;81;20983;-51
2022/08/09 05:45:17;;;;;;;6.62;5.70;;;;;;;30.59;47.24;101601.33;1735518;81;21503;-53
2022/08/09 05:47:44;;;;;;;6.37;5.78;;;;;;;30.76;46.68;101604.66;1732568;81;21504;-51
2022/08/09 05:50:11;;;;;;;6.08;5.47;;;;;;;30.90;46.44;101603.76;1732845;81;21063;-50
2022/08/09 05:52:39;;;;;;;6.75;6.12;;;;;;;31.03;46.56;101600.77;1731033;81;21011;-51
2022/08/09 05:55:07;;;;;;;9.15;5.95;;;;;;;31.15;46.56;101605.84;1728842;81;21059;-53
2022/08/09 05:57:35;;;;;;;9.60;6.00;;;;;;;31.27;46.35;101602.47;1734910;81;22044;-51
2022/08/09 06:00:04;;;;;;;6.10;5.50;;;;;;;31.41;46.14;101596.64;1732433;81;21027;-51
2022/08/09 06:02:34;;;;;;;6.95;6.30;;;;;;;31.57;45.91;101594.20;1697429;84;21057;-53
2022/08/09 06:05:01;;;;;;;7.72;5.50;;;;;;;31.73;45.42;101593.05;1699839;83;20998;-53
2022/08/09 06:07:28;;;;;;;7.72;6.12;;;;;;;31.93;45.19;101591.98;1696303;84;21529;-51
2022/08/09 06:09:55;;;;;;;6.67;6.05;;;;;;;32.17;44.58;101590.56;1702653;83;21062;-57
2022/08/09 06:12:22;;;;;;;6.12;5.37;;;;;;;32.38;44.01;101589.73;1699234;84;21530;-50
2022/08/09 06:14:48;;;;;;;7.53;5.65;;;;;;;32.56;43.54;101590.64;1686252;83;21029;-53
2022/08/09 06:17:15;;;;;;;9.23;5.55;;;;;;;32.72;43.14;101589.42;1702905;84;21017;-49
2022/08/09 06:19:42;;;;;;;7.15;5.80;;;;;;;32.83;42.96;101590.50;1700545;84;21074;-49
2022/08/09 06:22:08;;;;;;;6.17;5.58;;;;;;;32.88;42.94;101588.20;1698054;84;20998;-51
2022/08/09 06:24:35;;;;;;;6.55;5.80;;;;;;;32.91;42.28;101585.20;1690342;84;21054;-50
2022/08/09 06:27:03;;;;;;;7.10;6.25;;;;;;;32.92;42.08;101589.58;1693550;84;21051;-53
2022/08/09 06:29:29;;;;;;;8.58;5.75;;;;;;;32.91;42.29;101588.39;1700990;84;21018;-51
2022/08/09 06:31:56;;;;;;;6.45;5.80;;;;;;;32.89;42.13;101596.13;1698965;84;21053;-50
2022/08/09 06:34:24;;;;;;;6.40;5.80;;;;;;;32.87;41.93;101593.27;1698788;83;21042;-53
2022/08/09 06:36:50;;;;;;;5.97;5.47;;;;;;;32.85;41.97;101599.31;1734108;81;21149;-51
2022/08/09 06:39:17;;;;;;;7.20;5.70;;;;;;;32.83;41.58;101599.94;1728760;82;21082;-51
2022/08/09 06:41:45;;;;;;;6.62;5.55;;;;;;;32.79;41.71;101599.91;1736617;81;21540;-51
2022/08/09 06:44:14;;;;;;;6.62;6.03;;;;;;;32.77;41.50;101602.77;1734326;81;21425;-50
2022/08/09 06:46:42;;;;;;;5.85;5.35;;;;;;;32.75;41.62;101599.38;1731449;81;21011;-57
2022/08/09 06:49:09;;;;;;;7.10;5.87;;;;;;;32.75;41.60;101598.53;1731985;81;21050;-53
2022/08/09 06:51:37;;;;;;;6.37;5.53;;;;;;;32.75;41.73;101598.53;1733292;81;21594;-50
2022/08/09 06:54:04;;;;;;;6.00;5.40;;;;;;;32.73;41.61;101597.84;1743163;80;21077;-51
2022/08/09 06:56:31;;;;;;;7.53;5.75;;;;;;;32.70;42.02;101603.56;1754022;80;21000;-50
2022/08/09 06:58:58;;;;;;;8.80;5.95;;;;;;;32.68;42.39;101596.13;1743773;81;21001;-52
2022/08/09 07:01:24;;;;;;;6.75;5.72;;;;;;;32.67;42.72;101597.12;1699494;84;21038;-53
2022/08/09 07:03:51;;;;;;;6.62;5.97;;;;;;;32.64;42.95;101596.09;1699140;84;21507;-53
2022/08/09 07:06:18;;;;;;;7.20;6.50;;;;;;;32.64;43.10;101598.80;1700227;83;21022;-51
2022/08/09 07:08:45;;;;;;;7.15;5.97;;;;;;;32.61;42.97;101596.39;1698562;83;21514;-53
2022/08/09 07:11:12;;;;;;;7.83;5.87;;;;;;;32.63;42.78;101596.59;1701722;83;21054;-54
2022/08/09 07:13:40;;;;;;;6.30;5.70;;;;;;;32.72;42.58;101588.08;1700368;82;21050;-50
2022/08/09 07:16:07;;;;;;;6.08;5.22;;;;;;;32.79;42.24;101594.52;1736303;82;21061;-57
2022/08/09 07:18:34;;;;;;;6.60;6.10;;;;;;;32.93;41.82;101595.83;1738043;81;20998;-52
2022/08/09 07:21:01;;;;;;;7.20;5.72;;;;;;;33.09;41.19;101600.86;1735506;81;21491;-51
2022/08/09 07:23:28;;;;;;;6.65;5.83;;;;;;;33.21;40.88;101595.54;1726085;81;21067;-51
2022/08/09 07:25:55;;;;;;;7.37;5.78;;;;;;;33.35;40.32;101596.79;1731624;81;21031;-51
2022/08/09 07:28:22;;;;;;;6.12;5.58;;;;;;;33.45;40.03;101599.72;1743769;81;21058;-53
2022/08/09 07:30:49;;;;;;;7.70;5.95;;;;;;;33.57;40.23;101597.11;1702944;84;21081;-51
2022/08/09 07:33:16;;;;;;;6.62;6.03;;;;;;;33.65;41.00;101601.19;1702333;84;21522;-50
2022/08/09 07:35:43;;;;;;;7.67;6.83;;;;;;;33.73;41.96;101606.30;1704331;84;21440;-52
2022/08/09 07:38:10;;;;;;;6.95;6.30;;;;;;;33.73;42.82;101606.30;1730792;81;21366;-54
2022/08/09 07:40:37;;;;;;;8.20;5.83;;;;;;;33.70;43.15;101607.95;1738709;80;20989;-50
2022/08/09 07:43:04;;;;;;;9.00;6.08;;;;;;;33.68;43.06;101604.58;1743970;80;21047;-54
2022/08/09 07:45:31;;;;;;;8.50;6.15;;;;;;;33.68;43.24;101612.67;1731891;81;20991;-49
2022/08/09 07:47:59;;;;;;;6.53;5.42;;;;;;;33.68;42.11;101609.97;1735201;81;21011;-53
2022/08/09 07:50:27;;;;;;;6.58;5.97;;;;;;;33.67;41.96;101599.70;1744681;80;21023;-49
2022/08/09 07:52:54;;;;;;;6.30;5.70;;;;;;;33.65;41.53;101599.84;1745728;81;21031;-52
2022/08/09 07:55:21;;;;;;;6.20;5.65;;;;;;;33.64;41.15;101602.71;1740740;81;21023;-51
2022/08/09 07:57:49;;;;;;;6.85;5.60;;;;;;;33.64;41.15;101599.52;1739763;81;20968;-51
2022/08/09 08:00:18;;;;;;;6.47;5.35;;;;;;;33.68;40.61;101596.48;1738840;82;21008;-51
2022/08/09 08:02:45;;;;;;;9.48;6.42;;;;;;;33.70;40.50;101593.11;1744672;80;20987;-53
2022/08/09 08:05:12;;;;;;;10.82;5.72;;;;;;;33.70;40.41;101592.61;1745484;80;21018;-51
2022/08/09 08:07:39;;;;;;;8.48;5.53;;;;;;;33.74;39.44;101589.11;1741716;80;21097;-51
2022/08/09 08:10:08;;;;;;;7.35;5.87;;;;;;;33.75;38.01;101597.53;1736468;80;21551;-54
2022/08/09 08:12:38;;;;;;;6.15;5.17;;;;;;;33.78;38.37;101595.87;1739087;80;21046;-50
2022/08/09 08:15:07;;;;;;;5.85;5.17;;;;;;;33.82;38.37;101594.53;1653733;86;21693;-49
2022/08/09 08:17:35;;;;;;;8.53;5.45;;;;;;;33.85;37.63;101594.19;1642068;86;21527;-51
2022/08/09 08:20:04;;;;;;;6.22;5.08;;;;;;;33.86;37.30;101590.50;1697537;83;21015;-50
2022/08/09 08:22:31;;;;;;;6.03;4.90;;;;;;;33.89;37.31;101595.55;1697544;83;21615;-51
2022/08/09 08:24:58;;;;;;;7.12;4.90;;;;;;;33.94;37.06;101595.92;1669686;83;21107;-52
2022/08/09 08:27:25;;;;;;;5.50;5.00;;;;;;;34.00;36.73;101591.24;1701057;83;21704;-50
2022/08/09 08:29:52;;;;;;;5.97;4.97;;;;;;;34.05;36.54;101593.78;1693097;83;20983;-54
2022/08/09 08:32:20;;;;;;;8.15;5.58;;;;;;;34.09;36.68;101599.69;1693039;83;21142;-53
2022/08/09 08:34:46;;;;;;;5.62;5.20;;;;;;;34.12;37.19;101589.92;1689915;83;21019;-53
2022/08/09 08:37:13;;;;;;;6.10;5.60;;;;;;;34.17;38.05;101588.94;1694184;83;21110;-50
2022/08/09 08:39:40;;;;;;;7.62;5.53;;;;;;;34.19;38.28;101585.56;1682274;84;21066;-50
2022/08/09 08:42:07;;;;;;;6.30;5.70;;;;;;;34.23;38.59;101582.86;1690277;83;21021;-51
2022/08/09 08:44:35;;;;;;;6.60;5.60;;;;;;;34.25;38.87;101576.78;1693888;83;21102;-50
2022/08/09 08:47:03;;;;;;;7.33;5.20;;;;;;;34.29;37.72;101583.55;1696452;83;21074;-50
2022/08/09 08:49:31;;;;;;;6.12;5.03;;;;;;;34.32;37.47;101581.84;1692179;83;21054;-54
2022/08/09 08:51:59;;;;;;;6.10;5.50;;;;;;;34.37;38.04;101582.20;1695517;83;21518;-52
2022/08/09 08:54:25;;;;;;;6.10;5.42;;;;;;;34.44;38.39;101583.20;1693529;83;21003;-50
2022/08/09 08:56:52;;;;;;;5.95;5.17;;;;;;;34.50;38.49;101582.56;1684977;83;21058;-54
2022/08/09 08:59:19;;;;;;;7.08;5.45;;;;;;;34.56;38.49;101580.53;1692569;84;21059;-52
2022/08/09 09:01:48;;;;;;;6.55;5.85;;;;;;;34.62;38.72;101586.65;1691482;83;21015;-53
2022/08/09 09:04:15;;;;;;;6.83;6.22;;;;;;;34.68;39.08;101576.51;1691376;83;21522;-50
2022/08/09 09:06:42;;;;;;;5.70;5.20;;;;;;;34.75;38.85;101578.85;1693260;83;21050;-52
2022/08/09 09:09:10;;;;;;;7.90;5.78;;;;;;;34.81;38.26;101576.81;1694361;83;21058;-52
2022/08/09 09:11:37;;;;;;;5.90;5.28;;;;;;;34.85;38.48;101576.81;1721083;80;21511;-54
2022/08/09 09:14:16;;;;;;;6.92;5.45;;;;;;;34.88;38.14;101572.43;1748883;82;21069;-50
2022/08/09 09:16:43;;;;;;;5.65;5.15;;;;;;;34.91;37.70;101572.06;1703720;83;21533;-52
2022/08/09 09:19:11;;;;;;;11.68;5.78;;;;;;;34.95;37.54;101571.23;1736150;81;21026;-52
2022/08/09 09:22:01;;;;;;;5.90;5.40;;;;;;;34.98;37.47;101573.12;1738717;80;21066;-51
2022/08/09 09:24:31;;;;;;;6.12;5.47;;;;;;;35.02;37.24;101571.75;1687036;84;21495;-54
2022/08/09 09:26:59;;;;;;;6.90;5.00;;;;;;;35.07;37.20;101569.39;1729435;81;21070;-53
2022/08/09 09:29:40;;;;;;;6.15;4.80;;;;;;;35.11;35.87;101565.33;1737001;81;21072;-51
2022/08/09 09:32:07;;;;;;;7.62;5.00;;;;;;;35.15;35.11;101570.72;1740894;81;21011;-54
2022/08/09 09:34:34;;;;;;;5.42;4.72;;;;;;;35.19;35.21;101574.77;1733852;81;21014;-52
2022/08/09 09:37:04;;;;;;;6.90;4.80;;;;;;;35.23;34.97;101569.84;1736178;81;21089;-51
2022/08/09 09:39:32;;;;;;;5.92;4.85;;;;;;;35.29;34.59;101565.59;1732218;81;21030;-51
2022/08/09 09:41:59;;;;;;;6.62;4.45;;;;;;;35.34;34.51;101566.78;1698989;84;21539;-53
2022/08/09 09:44:32;;;;;;;4.87;4.47;;;;;;;35.39;33.84;101571.14;1687323;82;21569;-51
2022/08/09 09:47:12;;;;;;;4.28;3.87;;;;;;;35.44;33.34;101565.22;1713596;82;21031;-51
2022/08/09 09:49:39;;;;;;;5.17;3.63;;;;;;;35.48;32.15;101565.23;1708905;83;21062;-52
2022/08/09 09:52:10;;;;;;;4.47;4.05;;;;;;;35.53;31.43;101565.56;1714905;82;21401;-51
2022/08/09 09:54:47;;;;;;;5.47;3.65;;;;;;;35.56;29.84;101559.78;1712033;82;21042;-53
2022/08/09 09:57:19;;;;;;;3.67;3.30;;;;;;;35.55;28.54;101558.11;1708158;82;21499;-52
2022/08/09 09:59:48;;;;;;;7.12;3.58;;;;;;;35.66;27.94;101559.05;1714724;82;21057;-52
2022/08/09 10:02:16;;;;;;;4.17;3.45;;;;;;;35.72;27.51;101560.55;1701039;83;21029;-54
2022/08/09 10:04:42;;;;;;;5.15;4.22;;;;;;;35.81;27.58;101561.36;1706786;82;20982;-51
2022/08/09 10:07:22;;;;;;;4.12;3.65;;;;;;;35.86;27.66;101558.98;1699690;82;21018;-51
2022/08/09 10:09:54;;;;;;;4.87;3.50;;;;;;;35.91;27.59;101557.41;1709132;82;21046;-51
2022/08/09 10:12:32;;;;;;;4.95;4.12;;;;;;;35.94;26.93;101550.83;1706145;82;21014;-50
2022/08/09 10:15:14;;;;;;;5.83;3.83;;;;;;;35.96;27.19;101551.49;1650025;86;21093;-53
2022/08/09 10:17:46;;;;;;;4.65;3.37;;;;;;;36.01;26.93;101557.70;1641736;86;21137;-51
2022/08/09 10:20:26;;;;;;;3.60;3.30;;;;;;;36.00;26.60;101552.83;1651084;86;21034;-53
2022/08/09 10:25:22;;;;;;;4.93;3.03;;;;;;;36.11;27.02;101556.45;1606005;88;21072;-52
2022/08/09 10:27:49;;;;;;;8.48;3.22;;;;;;;36.13;27.45;101551.70;1613028;88;21602;-56
2022/08/09 10:30:16;;;;;;;3.37;3.10;;;;;;;36.17;26.79;101548.14;1611630;88;21085;-53
2022/08/09 10:32:44;;;;;;;42.80;6.40;;;;;;;36.16;26.79;101544.58;1612543;88;21074;-53
2022/08/09 10:35:11;;;;;;;4.75;3.95;;;;;;;36.23;26.11;101542.00;1603669;88;21624;-52
2022/08/09 10:37:37;;;;;;;3.37;3.08;;;;;;;36.27;26.46;101542.78;1601573;88;21074;-49
2022/08/09 10:40:08;;;;;;;3.08;2.85;;;;;;;36.30;25.52;101543.79;1603946;88;21072;-55
2022/08/09 10:42:35;;;;;;;5.40;2.60;;;;;;;36.34;24.93;101539.69;1608889;88;21555;-52
2022/08/09 10:45:06;;;;;;;5.25;2.62;;;;;;;36.38;23.96;101538.80;1600855;89;21565;-51
2022/08/09 10:48:13;;;;;;;3.83;2.90;;;;;;;36.43;24.08;101537.29;1604555;89;20982;-51
2022/08/09 10:51:08;;;;;;;3.00;2.70;;;;;;;36.49;23.80;101532.49;1594694;89;21091;-54
2022/08/09 10:53:58;;;;;;;4.60;2.52;;;;;;;36.61;22.74;101531.02;1571169;91;21116;-50
2022/08/09 10:56:30;;;;;;;3.95;2.70;;;;;;;36.71;21.99;101530.24;1601253;89;21619;-52
2022/08/09 10:58:58;;;;;;;4.10;2.30;;;;;;;36.83;21.17;101528.45;1602976;89;21110;-49
2022/08/09 11:01:36;;;;;;;3.35;2.65;;;;;;;36.92;20.50;101527.35;1555174;91;21086;-52
2022/08/09 11:04:14;;;;;;;4.03;2.77;;;;;;;36.97;20.51;101525.79;1597091;89;21033;-53
2022/08/09 11:06:43;;;;;;;5.17;2.65;;;;;;;37.01;20.12;101518.11;1585293;89;21036;-51
2022/08/09 11:09:10;;;;;;;4.53;2.45;;;;;;;37.08;20.01;101510.89;1602853;89;21028;-53
2022/08/09 11:12:03;;;;;;;5.60;2.83;;;;;;;37.16;19.75;101516.25;1602363;86;21101;-52
2022/08/09 11:14:34;;;;;;;3.72;2.75;;;;;;;37.22;19.99;101512.78;1651688;85;21569;-51
2022/08/09 11:17:01;;;;;;;6.00;2.17;;;;;;;37.27;19.81;101512.53;1676984;85;21496;-50
2022/08/09 11:19:54;;;;;;;5.22;2.87;;;;;;;37.37;19.07;101502.76;1680303;84;21042;-52
2022/08/09 11:22:34;;;;;;;2.95;2.50;;;;;;;37.38;18.69;101501.23;1681278;84;21114;-56
2022/08/09 11:25:05;;;;;;;5.53;2.77;;;;;;;37.45;18.83;101495.86;1622340;87;21126;-55
2022/08/09 11:27:39;;;;;;;6.40;2.65;;;;;;;37.25;19.21;101496.95;1620977;87;21014;-50
2022/08/09 11:30:28;;;;;;;3.65;2.65;;;;;;;37.27;19.10;101496.75;1672754;85;21567;-53
2022/08/09 11:33:06;;;;;;;3.10;2.80;;;;;;;37.31;19.47;101487.20;1677259;84;21028;-51
2022/08/09 11:35:40;;;;;;;2.90;2.70;;;;;;;37.60;19.05;101487.18;1676885;84;21126;-54
2022/08/09 11:38:26;;;;;;;2.58;2.37;;;;;;;37.67;19.30;101484.55;1676425;84;21600;-56